Spokane, WA

8:30 AM PDT on July 05, 2015 (GMT -0700)
In town | | Change Station
CLOSE
Current Station
Personal Weather Station
Location: Medical Lake, WA
Elevation: 2421 ft
Nearby Weather Stations
Active Advisory: Fire Weather Warning Active Notice: Record Report

Elev 2421 ft 47.58 °N, 117.69 °W | Updated 5 seconds ago

Clear
Clear
78.1 °F
Feels Like 79 °F
N
7.8
Wind Variable Wind from North
Gusts 8.9 mph

Today
High -- | Low -- °F
--% Chance of Precip.
Yesterday
High -- | Low -- °F
Precip. -- in
4:59 AM 8:50 PM
Waning Gibbous, 84% visible
Pressure 29.82 in
Visibility 10.0 miles
Clouds Clear
Heat Index 79 °F
Dew Point 50 °F
Humidity 38%
Rainfall 0.00 in
Snow Depth Not available.
UV 3 out of 12
Pollen 6.20 out of 12
Air Quality Not available.
Flu Activity Not available.
METAR KSKA 051458Z AUTO 04012KT 10SM CLR 24/08 A2988 RMK AO2 SLP097 T02420081 52017 $

More Conditions Fewer Conditions

Pressure 29.82 in
Visibility 10.0 miles
Clouds Clear
Heat Index 79 °F
Dew Point 50 °F
Humidity 38%
Rainfall 0.00 in
Snow Depth Not available.
UV 3 out of 12
Pollen 6.20 out of 12
Air Quality Not available.
Flu Activity Not available.
METAR KSKA 051458Z AUTO 04012KT 10SM CLR 24/08 A2988 RMK AO2 SLP097 T02420081 52017 $

More Conditions Fewer Conditions

10-Day Weather Forecast

×

Almanac

Astronomy

Jul. 05, 2015 Rise Set
Actual Time
Civil Twilight
Nautical Twilight
Astronomical Twilight
Moon
Length of Visible Light
Length of Day
Tomorrow will be .
, % of the Moon is Illuminated

Today's Extremes

State Highs State Lows

Community

WunderPhotos

Upload Photos

1,835,288 photos uploaded!

WunderBlogs® & News

Nearby

Air Quality

  Air Quality AQ Index Pollutant
Not available.

Snow Depth

Station Depth Elevation

Earthquake Activity

City Distance Mag. Time & Date
Minimum magnitude displayed is 2.5.

Coastal Water Temperatures

Place Temperature

Stations

Nearby Weather Stations

Station Location Temp. Windchill Dew Point Humidity Wind Precip. Elev Updated Type
                   
Fire Weather Warning
Statement as of 4:56 AM PDT on July 05, 2015

... Red flag warning remains in effect until 1 PM PDT this
afternoon for wind and low humidity for northeastern mountains...

* affected area: fire weather zone 686 East Washington northeast
(zone 686).

* Timing: gusty winds will continue through early this afternoon.
Very dry air behind the front will keep humidities near critical
thresholds. Better recoveries will be possible in Pend Oreille
County.

* Winds: northeast 15 to 25 mph with gusts up to 35 mph.

* Relative humidities: 14 to 29 percent.

* Impacts: rapid fire spread is possible with existing fires or
new fire starts in the area.

Precautionary/preparedness actions...

A red flag warning means that critical fire weather conditions
are either occurring now... or will shortly. A combination of
strong winds... low relative humidity... and warm temperatures will
create extreme fire growth potential.